sensor_id;sensor_type;location;lat;lon;timestamp;P1;durP1;ratioP1;P2;durP2;ratioP2
6825;SDS011;3451;52.476;13.316;2022-10-31T00:01:15;26.57;;;14.23;;
6825;SDS011;3451;52.476;13.316;2022-10-31T00:03:41;24.67;;;14.70;;
6825;SDS011;3451;52.476;13.316;2022-10-31T00:06:07;29.87;;;14.93;;
6825;SDS011;3451;52.476;13.316;2022-10-31T00:08:33;22.57;;;14.67;;
6825;SDS011;3451;52.476;13.316;2022-10-31T00:11:00;27.43;;;14.70;;
6825;SDS011;3451;52.476;13.316;2022-10-31T00:13:26;20.57;;;14.23;;
6825;SDS011;3451;52.476;13.316;2022-10-31T00:15:52;24.73;;;14.93;;
6825;SDS011;3451;52.476;13.316;2022-10-31T00:18:18;22.37;;;14.47;;
6825;SDS011;3451;52.476;13.316;2022-10-31T00:20:45;22.40;;;15.10;;
6825;SDS011;3451;52.476;13.316;2022-10-31T00:23:11;23.87;;;15.13;;
6825;SDS011;3451;52.476;13.316;2022-10-31T00:25:38;27.30;;;14.97;;
6825;SDS011;3451;52.476;13.316;2022-10-31T00:28:05;22.20;;;13.70;;
6825;SDS011;3451;52.476;13.316;2022-10-31T00:30:32;22.27;;;15.13;;
6825;SDS011;3451;52.476;13.316;2022-10-31T00:32:59;26.27;;;14.80;;
6825;SDS011;3451;52.476;13.316;2022-10-31T00:35:25;22.83;;;14.00;;
6825;SDS011;3451;52.476;13.316;2022-10-31T00:37:52;23.77;;;14.60;;
6825;SDS011;3451;52.476;13.316;2022-10-31T00:40:18;24.03;;;14.60;;
6825;SDS011;3451;52.476;13.316;2022-10-31T00:42:44;25.60;;;15.17;;
6825;SDS011;3451;52.476;13.316;2022-10-31T00:45:11;24.53;;;14.67;;
6825;SDS011;3451;52.476;13.316;2022-10-31T00:47:37;22.67;;;14.60;;
6825;SDS011;3451;52.476;13.316;2022-10-31T00:50:07;23.23;;;14.27;;
6825;SDS011;3451;52.476;13.316;2022-10-31T00:52:33;26.37;;;14.53;;
6825;SDS011;3451;52.476;13.316;2022-10-31T00:54:59;26.13;;;15.20;;
6825;SDS011;3451;52.476;13.316;2022-10-31T00:57:26;21.17;;;14.10;;
6825;SDS011;3451;52.476;13.316;2022-10-31T00:59:52;21.17;;;14.93;;
6825;SDS011;3451;52.476;13.316;2022-10-31T01:02:19;24.27;;;14.33;;
6825;SDS011;3451;52.476;13.316;2022-10-31T01:04:45;24.27;;;15.47;;
6825;SDS011;3451;52.476;13.316;2022-10-31T01:07:12;19.17;;;13.80;;
6825;SDS011;3451;52.476;13.316;2022-10-31T01:09:39;19.80;;;13.80;;
6825;SDS011;3451;52.476;13.316;2022-10-31T01:12:06;29.10;;;14.50;;
6825;SDS011;3451;52.476;13.316;2022-10-31T01:14:32;21.97;;;14.63;;
6825;SDS011;3451;52.476;13.316;2022-10-31T01:16:58;26.70;;;13.90;;
6825;SDS011;3451;52.476;13.316;2022-10-31T01:19:25;26.63;;;14.97;;
6825;SDS011;3451;52.476;13.316;2022-10-31T01:21:53;21.27;;;13.53;;
6825;SDS011;3451;52.476;13.316;2022-10-31T01:24:19;25.60;;;14.30;;
6825;SDS011;3451;52.476;13.316;2022-10-31T01:26:46;21.23;;;14.27;;
6825;SDS011;3451;52.476;13.316;2022-10-31T01:29:12;21.47;;;14.70;;
6825;SDS011;3451;52.476;13.316;2022-10-31T01:31:38;23.23;;;14.67;;
6825;SDS011;3451;52.476;13.316;2022-10-31T01:34:05;27.63;;;14.57;;
6825;SDS011;3451;52.476;13.316;2022-10-31T01:36:33;24.40;;;14.93;;
6825;SDS011;3451;52.476;13.316;2022-10-31T01:39:01;26.23;;;14.90;;
6825;SDS011;3451;52.476;13.316;2022-10-31T01:41:29;22.47;;;14.70;;
6825;SDS011;3451;52.476;13.316;2022-10-31T01:43:56;26.87;;;15.57;;
6825;SDS011;3451;52.476;13.316;2022-10-31T01:46:36;21.77;;;14.47;;
6825;SDS011;3451;52.476;13.316;2022-10-31T01:49:04;18.97;;;13.87;;
6825;SDS011;3451;52.476;13.316;2022-10-31T01:51:34;21.23;;;14.60;;
6825;SDS011;3451;52.476;13.316;2022-10-31T01:54:03;20.43;;;13.43;;
6825;SDS011;3451;52.476;13.316;2022-10-31T01:56:30;25.90;;;15.03;;
6825;SDS011;3451;52.476;13.316;2022-10-31T01:58:57;21.80;;;14.27;;
6825;SDS011;3451;52.476;13.316;2022-10-31T02:01:26;20.33;;;13.73;;
6825;SDS011;3451;52.476;13.316;2022-10-31T02:03:53;20.47;;;14.57;;
6825;SDS011;3451;52.476;13.316;2022-10-31T02:06:22;24.17;;;13.60;;
6825;SDS011;3451;52.476;13.316;2022-10-31T02:08:52;20.83;;;14.27;;
6825;SDS011;3451;52.476;13.316;2022-10-31T02:11:19;22.50;;;14.20;;
6825;SDS011;3451;52.476;13.316;2022-10-31T02:13:45;18.73;;;12.90;;
6825;SDS011;3451;52.476;13.316;2022-10-31T02:16:13;19.43;;;13.23;;
6825;SDS011;3451;52.476;13.316;2022-10-31T02:18:39;24.73;;;14.47;;
6825;SDS011;3451;52.476;13.316;2022-10-31T02:21:19;27.33;;;14.60;;
6825;SDS011;3451;52.476;13.316;2022-10-31T02:26:29;25.77;;;14.60;;
6825;SDS011;3451;52.476;13.316;2022-10-31T02:33:55;21.37;;;13.53;;
6825;SDS011;3451;52.476;13.316;2022-10-31T02:41:18;18.00;;;13.20;;
6825;SDS011;3451;52.476;13.316;2022-10-31T02:44:00;18.53;;;13.17;;
6825;SDS011;3451;52.476;13.316;2022-10-31T02:46:34;23.80;;;13.03;;
6825;SDS011;3451;52.476;13.316;2022-10-31T02:49:04;18.30;;;13.47;;
6825;SDS011;3451;52.476;13.316;2022-10-31T02:51:31;24.87;;;12.87;;
6825;SDS011;3451;52.476;13.316;2022-10-31T02:53:58;21.53;;;14.47;;
6825;SDS011;3451;52.476;13.316;2022-10-31T02:56:24;25.33;;;13.77;;
6825;SDS011;3451;52.476;13.316;2022-10-31T02:58:51;19.13;;;13.67;;
6825;SDS011;3451;52.476;13.316;2022-10-31T03:04:00;21.53;;;14.00;;
6825;SDS011;3451;52.476;13.316;2022-10-31T03:06:30;24.60;;;13.93;;
6825;SDS011;3451;52.476;13.316;2022-10-31T03:09:01;29.47;;;13.70;;
6825;SDS011;3451;52.476;13.316;2022-10-31T03:11:31;22.33;;;13.77;;
6825;SDS011;3451;52.476;13.316;2022-10-31T03:14:08;22.10;;;13.43;;
6825;SDS011;3451;52.476;13.316;2022-10-31T03:16:40;21.80;;;13.30;;
6825;SDS011;3451;52.476;13.316;2022-10-31T03:19:09;18.77;;;12.77;;
6825;SDS011;3451;52.476;13.316;2022-10-31T03:22:10;26.43;;;13.03;;
6825;SDS011;3451;52.476;13.316;2022-10-31T03:24:30;20.43;;;13.10;;
6825;SDS011;3451;52.476;13.316;2022-10-31T03:26:57;18.57;;;12.20;;
6825;SDS011;3451;52.476;13.316;2022-10-31T03:29:26;20.03;;;12.93;;
6825;SDS011;3451;52.476;13.316;2022-10-31T03:31:54;21.50;;;13.03;;
6825;SDS011;3451;52.476;13.316;2022-10-31T03:34:21;21.23;;;12.63;;
6825;SDS011;3451;52.476;13.316;2022-10-31T03:36:50;22.63;;;12.87;;
6825;SDS011;3451;52.476;13.316;2022-10-31T03:39:17;21.83;;;12.83;;
6825;SDS011;3451;52.476;13.316;2022-10-31T03:41:46;25.97;;;12.83;;
6825;SDS011;3451;52.476;13.316;2022-10-31T03:44:15;21.07;;;12.77;;
6825;SDS011;3451;52.476;13.316;2022-10-31T03:46:42;18.77;;;12.73;;
6825;SDS011;3451;52.476;13.316;2022-10-31T03:49:09;22.97;;;12.60;;
6825;SDS011;3451;52.476;13.316;2022-10-31T03:52:19;22.10;;;13.20;;
6825;SDS011;3451;52.476;13.316;2022-10-31T03:56:58;21.53;;;13.10;;
6825;SDS011;3451;52.476;13.316;2022-10-31T03:59:32;23.00;;;13.33;;
6825;SDS011;3451;52.476;13.316;2022-10-31T04:02:05;25.77;;;12.53;;
6825;SDS011;3451;52.476;13.316;2022-10-31T04:04:33;20.87;;;12.90;;
6825;SDS011;3451;52.476;13.316;2022-10-31T04:06:59;21.70;;;12.07;;
6825;SDS011;3451;52.476;13.316;2022-10-31T04:09:27;24.90;;;12.83;;
6825;SDS011;3451;52.476;13.316;2022-10-31T04:11:54;20.57;;;12.03;;
6825;SDS011;3451;52.476;13.316;2022-10-31T04:14:22;22.50;;;13.00;;
6825;SDS011;3451;52.476;13.316;2022-10-31T04:16:49;25.27;;;13.00;;
6825;SDS011;3451;52.476;13.316;2022-10-31T04:19:16;21.47;;;13.80;;
6825;SDS011;3451;52.476;13.316;2022-10-31T04:21:42;21.90;;;12.57;;
6825;SDS011;3451;52.476;13.316;2022-10-31T04:24:09;17.97;;;12.40;;
6825;SDS011;3451;52.476;13.316;2022-10-31T04:26:36;20.43;;;12.50;;
6825;SDS011;3451;52.476;13.316;2022-10-31T04:29:02;19.70;;;11.70;;
6825;SDS011;3451;52.476;13.316;2022-10-31T04:31:31;18.73;;;12.37;;
6825;SDS011;3451;52.476;13.316;2022-10-31T04:33:57;19.53;;;12.17;;
6825;SDS011;3451;52.476;13.316;2022-10-31T04:36:24;23.13;;;12.60;;
6825;SDS011;3451;52.476;13.316;2022-10-31T04:38:50;16.57;;;11.63;;
6825;SDS011;3451;52.476;13.316;2022-10-31T04:41:16;22.00;;;12.47;;
6825;SDS011;3451;52.476;13.316;2022-10-31T04:43:43;21.10;;;12.10;;
6825;SDS011;3451;52.476;13.316;2022-10-31T04:46:09;21.30;;;12.07;;
6825;SDS011;3451;52.476;13.316;2022-10-31T04:48:36;21.60;;;12.47;;
6825;SDS011;3451;52.476;13.316;2022-10-31T04:51:02;20.70;;;11.97;;
6825;SDS011;3451;52.476;13.316;2022-10-31T04:53:28;19.23;;;12.10;;
6825;SDS011;3451;52.476;13.316;2022-10-31T04:55:54;20.00;;;12.60;;
6825;SDS011;3451;52.476;13.316;2022-10-31T04:58:23;19.30;;;12.23;;
6825;SDS011;3451;52.476;13.316;2022-10-31T05:00:53;20.10;;;12.23;;
6825;SDS011;3451;52.476;13.316;2022-10-31T05:03:19;17.63;;;11.73;;
6825;SDS011;3451;52.476;13.316;2022-10-31T05:05:46;19.47;;;11.93;;
6825;SDS011;3451;52.476;13.316;2022-10-31T05:08:13;18.70;;;11.60;;
6825;SDS011;3451;52.476;13.316;2022-10-31T05:10:39;20.73;;;12.00;;
6825;SDS011;3451;52.476;13.316;2022-10-31T05:13:05;21.13;;;12.40;;
6825;SDS011;3451;52.476;13.316;2022-10-31T05:15:32;18.87;;;11.83;;
6825;SDS011;3451;52.476;13.316;2022-10-31T05:17:58;20.23;;;11.97;;
6825;SDS011;3451;52.476;13.316;2022-10-31T05:20:26;15.27;;;11.23;;
6825;SDS011;3451;52.476;13.316;2022-10-31T05:22:53;22.30;;;11.33;;
6825;SDS011;3451;52.476;13.316;2022-10-31T05:25:21;23.90;;;11.60;;
6825;SDS011;3451;52.476;13.316;2022-10-31T05:27:48;21.77;;;11.80;;
6825;SDS011;3451;52.476;13.316;2022-10-31T05:30:16;22.90;;;11.60;;
6825;SDS011;3451;52.476;13.316;2022-10-31T05:32:43;29.17;;;12.67;;
6825;SDS011;3451;52.476;13.316;2022-10-31T05:35:11;17.10;;;11.60;;
6825;SDS011;3451;52.476;13.316;2022-10-31T05:37:38;22.07;;;11.67;;
6825;SDS011;3451;52.476;13.316;2022-10-31T05:40:05;22.00;;;11.57;;
6825;SDS011;3451;52.476;13.316;2022-10-31T05:42:33;22.23;;;11.77;;
6825;SDS011;3451;52.476;13.316;2022-10-31T05:45:00;21.00;;;11.80;;
6825;SDS011;3451;52.476;13.316;2022-10-31T05:47:26;20.67;;;11.23;;
6825;SDS011;3451;52.476;13.316;2022-10-31T05:49:52;20.00;;;11.90;;
6825;SDS011;3451;52.476;13.316;2022-10-31T05:52:19;20.80;;;11.73;;
6825;SDS011;3451;52.476;13.316;2022-10-31T05:54:45;24.53;;;12.77;;
6825;SDS011;3451;52.476;13.316;2022-10-31T05:57:11;21.83;;;12.33;;
6825;SDS011;3451;52.476;13.316;2022-10-31T05:59:37;20.20;;;11.70;;
6825;SDS011;3451;52.476;13.316;2022-10-31T06:02:04;22.57;;;11.83;;
6825;SDS011;3451;52.476;13.316;2022-10-31T06:04:30;21.27;;;11.80;;
6825;SDS011;3451;52.476;13.316;2022-10-31T06:06:56;23.17;;;11.47;;
6825;SDS011;3451;52.476;13.316;2022-10-31T06:09:22;17.13;;;10.90;;
6825;SDS011;3451;52.476;13.316;2022-10-31T06:11:49;19.03;;;11.30;;
6825;SDS011;3451;52.476;13.316;2022-10-31T06:14:15;20.07;;;11.50;;
6825;SDS011;3451;52.476;13.316;2022-10-31T06:16:41;16.33;;;10.80;;
6825;SDS011;3451;52.476;13.316;2022-10-31T06:19:07;20.40;;;10.60;;
6825;SDS011;3451;52.476;13.316;2022-10-31T06:21:34;16.77;;;10.57;;
6825;SDS011;3451;52.476;13.316;2022-10-31T06:24:00;20.57;;;11.60;;
6825;SDS011;3451;52.476;13.316;2022-10-31T06:26:26;25.87;;;11.73;;
6825;SDS011;3451;52.476;13.316;2022-10-31T06:28:52;23.47;;;11.67;;
6825;SDS011;3451;52.476;13.316;2022-10-31T06:31:19;19.90;;;11.80;;
6825;SDS011;3451;52.476;13.316;2022-10-31T06:33:45;16.47;;;10.47;;
6825;SDS011;3451;52.476;13.316;2022-10-31T06:36:11;18.00;;;11.40;;
6825;SDS011;3451;52.476;13.316;2022-10-31T06:38:37;20.67;;;11.30;;
6825;SDS011;3451;52.476;13.316;2022-10-31T06:41:04;25.00;;;11.83;;
6825;SDS011;3451;52.476;13.316;2022-10-31T06:43:31;18.77;;;10.83;;
6825;SDS011;3451;52.476;13.316;2022-10-31T06:45:57;18.63;;;10.93;;
6825;SDS011;3451;52.476;13.316;2022-10-31T06:48:23;22.63;;;11.73;;
6825;SDS011;3451;52.476;13.316;2022-10-31T06:50:51;19.83;;;12.03;;
6825;SDS011;3451;52.476;13.316;2022-10-31T06:53:24;17.87;;;12.03;;
6825;SDS011;3451;52.476;13.316;2022-10-31T06:55:50;24.13;;;12.50;;
6825;SDS011;3451;52.476;13.316;2022-10-31T06:58:16;23.77;;;12.03;;
6825;SDS011;3451;52.476;13.316;2022-10-31T07:00:43;17.97;;;11.03;;
6825;SDS011;3451;52.476;13.316;2022-10-31T07:03:10;18.60;;;11.53;;
6825;SDS011;3451;52.476;13.316;2022-10-31T07:05:36;22.20;;;12.17;;
6825;SDS011;3451;52.476;13.316;2022-10-31T07:08:06;21.27;;;12.27;;
6825;SDS011;3451;52.476;13.316;2022-10-31T07:10:33;22.33;;;11.67;;
6825;SDS011;3451;52.476;13.316;2022-10-31T07:13:06;23.93;;;11.60;;
6825;SDS011;3451;52.476;13.316;2022-10-31T07:15:33;17.20;;;11.13;;
6825;SDS011;3451;52.476;13.316;2022-10-31T07:18:00;20.27;;;11.10;;
6825;SDS011;3451;52.476;13.316;2022-10-31T07:20:27;25.80;;;12.30;;
6825;SDS011;3451;52.476;13.316;2022-10-31T07:22:53;21.90;;;12.13;;
6825;SDS011;3451;52.476;13.316;2022-10-31T07:25:20;22.80;;;11.80;;
6825;SDS011;3451;52.476;13.316;2022-10-31T07:27:47;21.87;;;11.53;;
6825;SDS011;3451;52.476;13.316;2022-10-31T07:30:13;24.30;;;12.30;;
6825;SDS011;3451;52.476;13.316;2022-10-31T07:32:40;20.47;;;11.03;;
6825;SDS011;3451;52.476;13.316;2022-10-31T07:35:07;20.80;;;11.87;;
6825;SDS011;3451;52.476;13.316;2022-10-31T07:37:34;26.17;;;12.73;;
6825;SDS011;3451;52.476;13.316;2022-10-31T07:40:01;21.80;;;11.50;;
6825;SDS011;3451;52.476;13.316;2022-10-31T07:42:27;27.67;;;11.70;;
6825;SDS011;3451;52.476;13.316;2022-10-31T07:44:53;22.73;;;12.17;;
6825;SDS011;3451;52.476;13.316;2022-10-31T07:47:22;19.03;;;12.07;;
6825;SDS011;3451;52.476;13.316;2022-10-31T07:49:49;22.83;;;11.83;;
6825;SDS011;3451;52.476;13.316;2022-10-31T07:52:15;26.03;;;13.37;;
6825;SDS011;3451;52.476;13.316;2022-10-31T07:54:41;29.40;;;12.90;;
6825;SDS011;3451;52.476;13.316;2022-10-31T07:57:08;24.97;;;13.67;;
6825;SDS011;3451;52.476;13.316;2022-10-31T07:59:34;26.50;;;13.17;;
6825;SDS011;3451;52.476;13.316;2022-10-31T08:02:00;32.20;;;13.63;;
6825;SDS011;3451;52.476;13.316;2022-10-31T08:04:26;22.60;;;13.57;;
6825;SDS011;3451;52.476;13.316;2022-10-31T08:06:53;27.80;;;13.03;;
6825;SDS011;3451;52.476;13.316;2022-10-31T08:09:19;25.67;;;14.00;;
6825;SDS011;3451;52.476;13.316;2022-10-31T08:11:45;28.97;;;14.30;;
6825;SDS011;3451;52.476;13.316;2022-10-31T08:14:11;27.93;;;14.13;;
6825;SDS011;3451;52.476;13.316;2022-10-31T08:16:37;26.93;;;13.77;;
6825;SDS011;3451;52.476;13.316;2022-10-31T08:19:04;24.60;;;14.40;;
6825;SDS011;3451;52.476;13.316;2022-10-31T08:21:30;30.00;;;13.73;;
6825;SDS011;3451;52.476;13.316;2022-10-31T08:23:57;23.43;;;14.23;;
6825;SDS011;3451;52.476;13.316;2022-10-31T08:26:23;26.40;;;14.60;;
6825;SDS011;3451;52.476;13.316;2022-10-31T08:28:49;29.30;;;15.50;;
6825;SDS011;3451;52.476;13.316;2022-10-31T08:31:16;24.93;;;14.17;;
6825;SDS011;3451;52.476;13.316;2022-10-31T08:33:42;24.57;;;15.27;;
6825;SDS011;3451;52.476;13.316;2022-10-31T08:36:08;31.20;;;14.50;;
6825;SDS011;3451;52.476;13.316;2022-10-31T08:38:35;23.30;;;14.60;;
6825;SDS011;3451;52.476;13.316;2022-10-31T08:41:01;27.30;;;14.27;;
6825;SDS011;3451;52.476;13.316;2022-10-31T08:43:27;28.60;;;15.53;;
6825;SDS011;3451;52.476;13.316;2022-10-31T08:45:53;27.23;;;14.70;;
6825;SDS011;3451;52.476;13.316;2022-10-31T08:48:21;30.63;;;15.37;;
6825;SDS011;3451;52.476;13.316;2022-10-31T08:50:47;24.97;;;16.20;;
6825;SDS011;3451;52.476;13.316;2022-10-31T08:53:17;26.47;;;15.27;;
6825;SDS011;3451;52.476;13.316;2022-10-31T08:55:44;26.37;;;15.87;;
6825;SDS011;3451;52.476;13.316;2022-10-31T08:58:12;30.60;;;16.03;;
6825;SDS011;3451;52.476;13.316;2022-10-31T09:00:38;26.67;;;15.80;;
6825;SDS011;3451;52.476;13.316;2022-10-31T09:03:08;30.67;;;15.70;;
6825;SDS011;3451;52.476;13.316;2022-10-31T09:05:34;34.37;;;15.80;;
6825;SDS011;3451;52.476;13.316;2022-10-31T09:08:01;28.60;;;15.57;;
6825;SDS011;3451;52.476;13.316;2022-10-31T09:10:29;27.47;;;16.30;;
6825;SDS011;3451;52.476;13.316;2022-10-31T09:15:22;27.17;;;16.53;;
6825;SDS011;3451;52.476;13.316;2022-10-31T09:17:49;33.13;;;16.50;;
6825;SDS011;3451;52.476;13.316;2022-10-31T09:20:15;28.23;;;15.70;;
6825;SDS011;3451;52.476;13.316;2022-10-31T09:22:41;27.83;;;16.03;;
6825;SDS011;3451;52.476;13.316;2022-10-31T09:25:08;29.10;;;15.83;;
6825;SDS011;3451;52.476;13.316;2022-10-31T09:27:34;29.40;;;15.20;;
6825;SDS011;3451;52.476;13.316;2022-10-31T09:30:01;30.10;;;16.07;;
6825;SDS011;3451;52.476;13.316;2022-10-31T09:32:27;28.87;;;15.33;;
6825;SDS011;3451;52.476;13.316;2022-10-31T09:34:53;30.10;;;15.57;;
6825;SDS011;3451;52.476;13.316;2022-10-31T09:37:20;26.63;;;16.43;;
6825;SDS011;3451;52.476;13.316;2022-10-31T09:39:46;31.60;;;16.93;;
6825;SDS011;3451;52.476;13.316;2022-10-31T09:45:15;30.30;;;16.10;;
6825;SDS011;3451;52.476;13.316;2022-10-31T09:50:44;28.10;;;16.70;;
6825;SDS011;3451;52.476;13.316;2022-10-31T09:53:04;34.80;;;16.83;;
6825;SDS011;3451;52.476;13.316;2022-10-31T09:58:02;28.73;;;16.30;;
6825;SDS011;3451;52.476;13.316;2022-10-31T10:00:29;32.57;;;17.30;;
6825;SDS011;3451;52.476;13.316;2022-10-31T10:03:21;30.50;;;18.03;;
6825;SDS011;3451;52.476;13.316;2022-10-31T10:06:02;29.33;;;17.00;;
6825;SDS011;3451;52.476;13.316;2022-10-31T10:08:31;33.77;;;17.97;;
6825;SDS011;3451;52.476;13.316;2022-10-31T10:11:07;31.33;;;18.77;;
6825;SDS011;3451;52.476;13.316;2022-10-31T10:19:07;35.27;;;18.50;;
6825;SDS011;3451;52.476;13.316;2022-10-31T10:24:15;31.53;;;17.93;;
6825;SDS011;3451;52.476;13.316;2022-10-31T10:26:46;29.90;;;17.13;;
6825;SDS011;3451;52.476;13.316;2022-10-31T10:29:20;32.17;;;17.87;;
6825;SDS011;3451;52.476;13.316;2022-10-31T10:31:47;33.07;;;18.23;;
6825;SDS011;3451;52.476;13.316;2022-10-31T10:34:29;27.73;;;16.80;;
6825;SDS011;3451;52.476;13.316;2022-10-31T10:36:58;30.53;;;17.87;;
6825;SDS011;3451;52.476;13.316;2022-10-31T10:39:41;36.97;;;17.93;;
6825;SDS011;3451;52.476;13.316;2022-10-31T10:42:13;29.07;;;17.67;;
6825;SDS011;3451;52.476;13.316;2022-10-31T10:44:59;35.63;;;18.17;;
6825;SDS011;3451;52.476;13.316;2022-10-31T10:47:44;35.80;;;18.47;;
6825;SDS011;3451;52.476;13.316;2022-10-31T10:50:18;36.47;;;18.90;;
6825;SDS011;3451;52.476;13.316;2022-10-31T10:52:54;34.83;;;18.87;;
6825;SDS011;3451;52.476;13.316;2022-10-31T10:55:43;32.87;;;18.33;;
6825;SDS011;3451;52.476;13.316;2022-10-31T10:58:11;36.13;;;18.50;;
6825;SDS011;3451;52.476;13.316;2022-10-31T11:00:38;32.80;;;18.73;;
6825;SDS011;3451;52.476;13.316;2022-10-31T11:03:06;30.63;;;18.60;;
6825;SDS011;3451;52.476;13.316;2022-10-31T11:05:37;41.03;;;18.90;;
6825;SDS011;3451;52.476;13.316;2022-10-31T11:08:05;34.70;;;19.03;;
6825;SDS011;3451;52.476;13.316;2022-10-31T11:10:31;28.07;;;17.40;;
6825;SDS011;3451;52.476;13.316;2022-10-31T11:13:14;30.10;;;18.03;;
6825;SDS011;3451;52.476;13.316;2022-10-31T11:15:51;33.73;;;18.73;;
6825;SDS011;3451;52.476;13.316;2022-10-31T11:18:20;33.33;;;18.93;;
6825;SDS011;3451;52.476;13.316;2022-10-31T11:20:51;29.93;;;18.00;;
6825;SDS011;3451;52.476;13.316;2022-10-31T11:23:18;31.60;;;17.77;;
6825;SDS011;3451;52.476;13.316;2022-10-31T11:25:53;32.40;;;17.47;;
6825;SDS011;3451;52.476;13.316;2022-10-31T11:28:22;27.87;;;17.50;;
6825;SDS011;3451;52.476;13.316;2022-10-31T11:30:50;34.10;;;18.03;;
6825;SDS011;3451;52.476;13.316;2022-10-31T11:33:19;31.00;;;17.37;;
6825;SDS011;3451;52.476;13.316;2022-10-31T11:35:47;34.03;;;18.80;;
6825;SDS011;3451;52.476;13.316;2022-10-31T11:38:19;32.60;;;17.80;;
6825;SDS011;3451;52.476;13.316;2022-10-31T11:40:59;30.73;;;18.10;;
6825;SDS011;3451;52.476;13.316;2022-10-31T11:43:26;30.03;;;18.27;;
6825;SDS011;3451;52.476;13.316;2022-10-31T11:45:53;30.33;;;18.17;;
6825;SDS011;3451;52.476;13.316;2022-10-31T11:48:21;34.83;;;18.47;;
6825;SDS011;3451;52.476;13.316;2022-10-31T11:50:52;29.87;;;19.40;;
6825;SDS011;3451;52.476;13.316;2022-10-31T11:53:23;33.40;;;18.57;;
6825;SDS011;3451;52.476;13.316;2022-10-31T11:56:01;31.93;;;17.97;;
6825;SDS011;3451;52.476;13.316;2022-10-31T11:58:29;32.37;;;18.20;;
6825;SDS011;3451;52.476;13.316;2022-10-31T12:00:56;32.87;;;17.97;;
6825;SDS011;3451;52.476;13.316;2022-10-31T12:08:23;33.10;;;17.40;;
6825;SDS011;3451;52.476;13.316;2022-10-31T12:13:34;27.37;;;16.97;;
6825;SDS011;3451;52.476;13.316;2022-10-31T12:16:46;28.27;;;16.37;;
6825;SDS011;3451;52.476;13.316;2022-10-31T12:19:11;29.33;;;15.87;;
6825;SDS011;3451;52.476;13.316;2022-10-31T12:21:46;28.73;;;16.27;;
6825;SDS011;3451;52.476;13.316;2022-10-31T12:31:57;31.53;;;18.30;;
6825;SDS011;3451;52.476;13.316;2022-10-31T12:39:34;29.73;;;17.73;;
6825;SDS011;3451;52.476;13.316;2022-10-31T12:47:17;38.10;;;18.60;;
6825;SDS011;3451;52.476;13.316;2022-10-31T12:52:29;32.73;;;18.77;;
6825;SDS011;3451;52.476;13.316;2022-10-31T12:59:53;32.40;;;18.27;;
6825;SDS011;3451;52.476;13.316;2022-10-31T13:02:31;33.47;;;19.00;;
6825;SDS011;3451;52.476;13.316;2022-10-31T13:05:01;33.13;;;19.17;;
6825;SDS011;3451;52.476;13.316;2022-10-31T13:09:57;30.33;;;18.83;;
6825;SDS011;3451;52.476;13.316;2022-10-31T13:12:24;32.97;;;19.30;;
6825;SDS011;3451;52.476;13.316;2022-10-31T13:14:53;28.17;;;18.30;;
6825;SDS011;3451;52.476;13.316;2022-10-31T13:20:11;34.87;;;18.47;;
6825;SDS011;3451;52.476;13.316;2022-10-31T13:22:38;33.03;;;18.53;;
6825;SDS011;3451;52.476;13.316;2022-10-31T13:27:54;32.67;;;18.27;;
6825;SDS011;3451;52.476;13.316;2022-10-31T13:30:22;29.10;;;17.47;;
6825;SDS011;3451;52.476;13.316;2022-10-31T13:32:55;31.23;;;17.97;;
6825;SDS011;3451;52.476;13.316;2022-10-31T13:35:26;30.70;;;17.93;;
6825;SDS011;3451;52.476;13.316;2022-10-31T13:38:09;34.53;;;16.73;;
6825;SDS011;3451;52.476;13.316;2022-10-31T13:40:51;27.90;;;16.90;;
6825;SDS011;3451;52.476;13.316;2022-10-31T13:45:53;36.70;;;18.57;;
6825;SDS011;3451;52.476;13.316;2022-10-31T13:48:32;27.93;;;18.33;;
6825;SDS011;3451;52.476;13.316;2022-10-31T13:51:00;38.77;;;18.20;;
6825;SDS011;3451;52.476;13.316;2022-10-31T13:53:44;35.20;;;19.67;;
6825;SDS011;3451;52.476;13.316;2022-10-31T13:56:15;33.87;;;20.20;;
6825;SDS011;3451;52.476;13.316;2022-10-31T14:01:20;38.40;;;20.80;;
6825;SDS011;3451;52.476;13.316;2022-10-31T14:03:59;39.10;;;23.40;;
6825;SDS011;3451;52.476;13.316;2022-10-31T14:09:25;49.37;;;23.93;;
6825;SDS011;3451;52.476;13.316;2022-10-31T14:11:52;41.23;;;23.97;;
6825;SDS011;3451;52.476;13.316;2022-10-31T14:14:19;41.77;;;24.50;;
6825;SDS011;3451;52.476;13.316;2022-10-31T14:16:51;41.63;;;23.83;;
6825;SDS011;3451;52.476;13.316;2022-10-31T14:19:20;45.07;;;26.10;;
6825;SDS011;3451;52.476;13.316;2022-10-31T14:21:47;40.43;;;26.43;;
6825;SDS011;3451;52.476;13.316;2022-10-31T14:24:15;46.00;;;25.93;;
6825;SDS011;3451;52.476;13.316;2022-10-31T14:29:27;41.17;;;26.97;;
6825;SDS011;3451;52.476;13.316;2022-10-31T14:34:33;45.43;;;27.47;;
6825;SDS011;3451;52.476;13.316;2022-10-31T14:37:05;42.73;;;26.80;;
6825;SDS011;3451;52.476;13.316;2022-10-31T14:39:57;43.80;;;27.97;;
6825;SDS011;3451;52.476;13.316;2022-10-31T14:47:32;49.33;;;29.27;;
6825;SDS011;3451;52.476;13.316;2022-10-31T14:52:48;48.03;;;29.23;;
6825;SDS011;3451;52.476;13.316;2022-10-31T14:55:16;50.90;;;31.00;;
6825;SDS011;3451;52.476;13.316;2022-10-31T14:57:52;50.97;;;30.87;;
6825;SDS011;3451;52.476;13.316;2022-10-31T15:00:20;53.70;;;31.30;;
6825;SDS011;3451;52.476;13.316;2022-10-31T15:05:18;53.20;;;31.33;;
6825;SDS011;3451;52.476;13.316;2022-10-31T15:07:54;48.27;;;30.93;;
6825;SDS011;3451;52.476;13.316;2022-10-31T15:10:23;48.03;;;29.80;;
6825;SDS011;3451;52.476;13.316;2022-10-31T15:12:51;51.47;;;31.20;;
6825;SDS011;3451;52.476;13.316;2022-10-31T15:15:21;53.70;;;33.23;;
6825;SDS011;3451;52.476;13.316;2022-10-31T15:17:51;56.80;;;33.47;;
6825;SDS011;3451;52.476;13.316;2022-10-31T15:20:25;57.17;;;34.23;;
6825;SDS011;3451;52.476;13.316;2022-10-31T15:22:56;57.10;;;33.37;;
6825;SDS011;3451;52.476;13.316;2022-10-31T15:25:23;63.03;;;35.33;;
6825;SDS011;3451;52.476;13.316;2022-10-31T15:27:51;56.10;;;33.77;;
6825;SDS011;3451;52.476;13.316;2022-10-31T15:32:45;56.70;;;33.93;;
6825;SDS011;3451;52.476;13.316;2022-10-31T15:35:29;69.30;;;36.83;;
6825;SDS011;3451;52.476;13.316;2022-10-31T15:37:57;66.10;;;37.73;;
6825;SDS011;3451;52.476;13.316;2022-10-31T15:40:26;61.90;;;36.40;;
6825;SDS011;3451;52.476;13.316;2022-10-31T15:45:24;68.37;;;37.27;;
6825;SDS011;3451;52.476;13.316;2022-10-31T15:48:12;69.00;;;37.67;;
6825;SDS011;3451;52.476;13.316;2022-10-31T15:50:40;68.57;;;38.60;;
6825;SDS011;3451;52.476;13.316;2022-10-31T15:53:18;68.97;;;38.13;;
6825;SDS011;3451;52.476;13.316;2022-10-31T15:55:48;74.50;;;38.20;;
6825;SDS011;3451;52.476;13.316;2022-10-31T15:58:16;70.87;;;37.67;;
6825;SDS011;3451;52.476;13.316;2022-10-31T16:00:44;70.00;;;37.50;;
6825;SDS011;3451;52.476;13.316;2022-10-31T16:05:49;71.23;;;38.30;;
6825;SDS011;3451;52.476;13.316;2022-10-31T16:10:59;74.30;;;38.70;;
6825;SDS011;3451;52.476;13.316;2022-10-31T16:13:27;80.43;;;40.57;;
6825;SDS011;3451;52.476;13.316;2022-10-31T16:15:56;78.93;;;40.93;;
6825;SDS011;3451;52.476;13.316;2022-10-31T16:18:44;74.80;;;38.47;;
6825;SDS011;3451;52.476;13.316;2022-10-31T16:21:11;83.47;;;41.23;;
6825;SDS011;3451;52.476;13.316;2022-10-31T16:23:39;78.27;;;40.73;;
6825;SDS011;3451;52.476;13.316;2022-10-31T16:26:12;82.30;;;40.63;;
6825;SDS011;3451;52.476;13.316;2022-10-31T16:28:50;81.23;;;41.07;;
6825;SDS011;3451;52.476;13.316;2022-10-31T16:31:24;87.97;;;41.33;;
6825;SDS011;3451;52.476;13.316;2022-10-31T16:34:00;84.27;;;41.57;;
6825;SDS011;3451;52.476;13.316;2022-10-31T16:36:30;82.17;;;41.37;;